sensor_id;sensor_type;location;lat;lon;timestamp;pressure;altitude;pressure_sealevel;temperature;humidity
59877;BME280;74472;51.140;17.184;2023-12-28T00:01:07;100171.22;;;2.87;80.89
59877;BME280;74472;51.140;17.184;2023-12-28T00:03:32;100166.88;;;2.87;81.04
59877;BME280;74472;51.140;17.184;2023-12-28T00:05:58;100167.03;;;2.82;81.13
59877;BME280;74472;51.140;17.184;2023-12-28T00:08:23;100160.00;;;2.85;81.44
59877;BME280;74472;51.140;17.184;2023-12-28T00:10:48;100158.34;;;2.84;81.53
59877;BME280;74472;51.140;17.184;2023-12-28T00:13:14;100157.41;;;2.85;81.54
59877;BME280;74472;51.140;17.184;2023-12-28T00:15:39;100162.50;;;2.88;81.59
59877;BME280;74472;51.140;17.184;2023-12-28T00:18:06;100152.13;;;2.86;81.45
59877;BME280;74472;51.140;17.184;2023-12-28T00:20:31;100149.72;;;2.81;81.59
59877;BME280;74472;51.140;17.184;2023-12-28T00:22:56;100143.53;;;2.84;81.54
59877;BME280;74472;51.140;17.184;2023-12-28T00:25:23;100139.28;;;2.81;81.70
59877;BME280;74472;51.140;17.184;2023-12-28T00:27:48;100135.78;;;2.82;81.65
59877;BME280;74472;51.140;17.184;2023-12-28T00:30:14;100125.34;;;2.82;81.83
59877;BME280;74472;51.140;17.184;2023-12-28T00:32:39;100127.91;;;2.84;81.88
59877;BME280;74472;51.140;17.184;2023-12-28T00:35:08;100133.88;;;2.86;81.72
59877;BME280;74472;51.140;17.184;2023-12-28T00:37:33;100131.13;;;2.89;81.98
59877;BME280;74472;51.140;17.184;2023-12-28T00:39:59;100131.94;;;2.91;81.78
59877;BME280;74472;51.140;17.184;2023-12-28T00:42:24;100131.84;;;2.93;81.70
59877;BME280;74472;51.140;17.184;2023-12-28T00:44:49;100130.03;;;2.95;81.88
59877;BME280;74472;51.140;17.184;2023-12-28T00:47:15;100127.63;;;2.90;82.14
59877;BME280;74472;51.140;17.184;2023-12-28T00:49:40;100125.06;;;2.89;82.02
59877;BME280;74472;51.140;17.184;2023-12-28T00:52:05;100116.50;;;2.87;82.27
59877;BME280;74472;51.140;17.184;2023-12-28T00:54:32;100106.06;;;2.87;82.20
59877;BME280;74472;51.140;17.184;2023-12-28T00:56:57;100112.84;;;2.91;82.25
59877;BME280;74472;51.140;17.184;2023-12-28T00:59:23;100114.38;;;2.95;81.92
59877;BME280;74472;51.140;17.184;2023-12-28T01:01:48;100114.34;;;2.96;82.00
59877;BME280;74472;51.140;17.184;2023-12-28T01:04:13;100119.59;;;2.95;82.00
59877;BME280;74472;51.140;17.184;2023-12-28T01:06:39;100124.59;;;2.99;82.33
59877;BME280;74472;51.140;17.184;2023-12-28T01:09:06;100120.38;;;2.97;82.03
59877;BME280;74472;51.140;17.184;2023-12-28T01:11:31;100122.34;;;2.92;82.15
59877;BME280;74472;51.140;17.184;2023-12-28T01:13:56;100115.22;;;2.95;82.21
59877;BME280;74472;51.140;17.184;2023-12-28T01:16:22;100105.06;;;2.89;82.50
59877;BME280;74472;51.140;17.184;2023-12-28T01:18:48;100111.00;;;2.93;82.30
59877;BME280;74472;51.140;17.184;2023-12-28T01:21:13;100118.75;;;2.94;82.08
59877;BME280;74472;51.140;17.184;2023-12-28T01:23:38;100109.19;;;2.95;82.25
59877;BME280;74472;51.140;17.184;2023-12-28T01:26:04;100102.41;;;2.91;82.25
59877;BME280;74472;51.140;17.184;2023-12-28T01:28:29;100087.19;;;2.81;82.23
59877;BME280;74472;51.140;17.184;2023-12-28T01:30:55;100105.28;;;2.85;82.76
59877;BME280;74472;51.140;17.184;2023-12-28T01:33:20;100105.94;;;2.90;82.37
59877;BME280;74472;51.140;17.184;2023-12-28T01:35:45;100100.56;;;2.93;82.86
59877;BME280;74472;51.140;17.184;2023-12-28T01:38:11;100094.25;;;2.98;82.19
59877;BME280;74472;51.140;17.184;2023-12-28T01:40:36;100099.53;;;2.97;82.49
59877;BME280;74472;51.140;17.184;2023-12-28T01:43:01;100104.81;;;2.95;82.31
59877;BME280;74472;51.140;17.184;2023-12-28T01:45:27;100084.03;;;2.94;82.22
59877;BME280;74472;51.140;17.184;2023-12-28T01:47:53;100085.44;;;3.01;82.48
59877;BME280;74472;51.140;17.184;2023-12-28T01:50:19;100081.78;;;3.05;82.19
59877;BME280;74472;51.140;17.184;2023-12-28T01:52:46;100081.72;;;3.07;82.27
59877;BME280;74472;51.140;17.184;2023-12-28T01:55:12;100089.72;;;3.02;82.14
59877;BME280;74472;51.140;17.184;2023-12-28T01:57:37;100077.69;;;2.99;82.16
59877;BME280;74472;51.140;17.184;2023-12-28T02:00:04;100081.16;;;3.00;82.36
59877;BME280;74472;51.140;17.184;2023-12-28T02:02:31;100061.13;;;3.00;82.07
59877;BME280;74472;51.140;17.184;2023-12-28T02:04:57;100052.81;;;2.92;82.15
59877;BME280;74472;51.140;17.184;2023-12-28T02:07:24;100054.66;;;2.90;82.23
59877;BME280;74472;51.140;17.184;2023-12-28T02:09:49;100047.81;;;2.88;82.35
59877;BME280;74472;51.140;17.184;2023-12-28T02:12:14;100048.75;;;2.87;82.69
59877;BME280;74472;51.140;17.184;2023-12-28T02:14:40;100038.59;;;2.80;82.74
59877;BME280;74472;51.140;17.184;2023-12-28T02:17:23;100042.75;;;2.85;82.89
59877;BME280;74472;51.140;17.184;2023-12-28T02:19:53;100045.06;;;2.91;82.76
59877;BME280;74472;51.140;17.184;2023-12-28T02:22:20;100040.63;;;2.93;82.64
59877;BME280;74472;51.140;17.184;2023-12-28T02:25:06;100034.44;;;2.95;82.77
59877;BME280;74472;51.140;17.184;2023-12-28T02:27:33;100027.41;;;2.97;82.59
59877;BME280;74472;51.140;17.184;2023-12-28T02:29:58;100024.69;;;2.99;82.41
59877;BME280;74472;51.140;17.184;2023-12-28T02:35:45;100023.81;;;3.00;82.38
59877;BME280;74472;51.140;17.184;2023-12-28T02:38:13;100020.28;;;3.01;82.14
59877;BME280;74472;51.140;17.184;2023-12-28T02:40:40;100011.81;;;2.96;82.33
59877;BME280;74472;51.140;17.184;2023-12-28T02:43:08;100009.56;;;2.88;82.01
59877;BME280;74472;51.140;17.184;2023-12-28T02:45:34;100001.03;;;2.85;82.44
59877;BME280;74472;51.140;17.184;2023-12-28T02:47:59;100007.03;;;2.87;82.19
59877;BME280;74472;51.140;17.184;2023-12-28T02:50:25;100002.59;;;2.89;82.42
59877;BME280;74472;51.140;17.184;2023-12-28T02:52:53;99995.91;;;2.83;82.22
59877;BME280;74472;51.140;17.184;2023-12-28T02:55:18;99998.66;;;2.80;82.35
59877;BME280;74472;51.140;17.184;2023-12-28T02:57:44;99998.72;;;2.78;82.40
59877;BME280;74472;51.140;17.184;2023-12-28T03:00:16;99998.09;;;2.73;82.42
59877;BME280;74472;51.140;17.184;2023-12-28T03:02:42;99994.84;;;2.68;82.41
59877;BME280;74472;51.140;17.184;2023-12-28T03:05:08;99983.50;;;2.69;82.46
59877;BME280;74472;51.140;17.184;2023-12-28T03:07:34;99973.06;;;2.69;82.43
59877;BME280;74472;51.140;17.184;2023-12-28T03:09:59;99967.25;;;2.64;82.02
59877;BME280;74472;51.140;17.184;2023-12-28T03:12:25;99955.34;;;2.58;82.46
59877;BME280;74472;51.140;17.184;2023-12-28T03:14:50;99967.38;;;2.61;82.77
59877;BME280;74472;51.140;17.184;2023-12-28T03:17:16;99966.53;;;2.61;82.68
59877;BME280;74472;51.140;17.184;2023-12-28T03:19:41;99967.44;;;2.59;82.66
59877;BME280;74472;51.140;17.184;2023-12-28T03:22:07;99956.13;;;2.61;82.89
59877;BME280;74472;51.140;17.184;2023-12-28T03:24:32;99952.81;;;2.57;82.65
59877;BME280;74472;51.140;17.184;2023-12-28T03:27:00;99958.22;;;2.52;82.68
59877;BME280;74472;51.140;17.184;2023-12-28T03:29:28;99955.81;;;2.48;82.64
59877;BME280;74472;51.140;17.184;2023-12-28T03:31:54;99959.53;;;2.42;82.95
59877;BME280;74472;51.140;17.184;2023-12-28T03:34:19;99957.16;;;2.38;83.54
59877;BME280;74472;51.140;17.184;2023-12-28T03:36:44;99941.25;;;2.44;83.81
59877;BME280;74472;51.140;17.184;2023-12-28T03:39:10;99932.16;;;2.52;83.51
59877;BME280;74472;51.140;17.184;2023-12-28T03:41:35;99928.59;;;2.55;83.15
59877;BME280;74472;51.140;17.184;2023-12-28T03:44:00;99922.41;;;2.57;83.20
59877;BME280;74472;51.140;17.184;2023-12-28T03:46:26;99927.66;;;2.56;83.16
59877;BME280;74472;51.140;17.184;2023-12-28T03:48:52;99930.25;;;2.56;83.24
59877;BME280;74472;51.140;17.184;2023-12-28T03:51:18;99913.09;;;2.52;82.93
59877;BME280;74472;51.140;17.184;2023-12-28T03:53:43;99920.06;;;2.51;83.29
59877;BME280;74472;51.140;17.184;2023-12-28T03:56:18;99912.25;;;2.51;83.18
59877;BME280;74472;51.140;17.184;2023-12-28T03:58:43;99913.22;;;2.49;83.34
59877;BME280;74472;51.140;17.184;2023-12-28T04:01:09;99914.16;;;2.48;83.27
59877;BME280;74472;51.140;17.184;2023-12-28T04:03:34;99910.63;;;2.49;83.34
59877;BME280;74472;51.140;17.184;2023-12-28T04:06:00;99901.19;;;2.46;83.21
59877;BME280;74472;51.140;17.184;2023-12-28T04:08:25;99904.63;;;2.47;83.42
59877;BME280;74472;51.140;17.184;2023-12-28T04:10:50;99916.75;;;2.48;83.06
59877;BME280;74472;51.140;17.184;2023-12-28T04:13:16;99919.28;;;2.49;83.24
59877;BME280;74472;51.140;17.184;2023-12-28T04:15:42;99926.13;;;2.52;82.84
59877;BME280;74472;51.140;17.184;2023-12-28T04:18:08;99907.97;;;2.50;82.94
59877;BME280;74472;51.140;17.184;2023-12-28T04:20:33;99910.50;;;2.52;82.54
59877;BME280;74472;51.140;17.184;2023-12-28T04:22:58;99906.97;;;2.53;82.81
59877;BME280;74472;51.140;17.184;2023-12-28T04:25:24;99906.22;;;2.51;82.77
59877;BME280;74472;51.140;17.184;2023-12-28T04:27:49;99912.53;;;2.45;82.58
59877;BME280;74472;51.140;17.184;2023-12-28T04:30:14;99906.63;;;2.42;82.76
59877;BME280;74472;51.140;17.184;2023-12-28T04:32:40;99905.13;;;2.36;82.77
59877;BME280;74472;51.140;17.184;2023-12-28T04:35:05;99911.03;;;2.40;82.88
59877;BME280;74472;51.140;17.184;2023-12-28T04:37:31;99916.38;;;2.37;83.15
59877;BME280;74472;51.140;17.184;2023-12-28T04:39:57;99918.22;;;2.34;82.86
59877;BME280;74472;51.140;17.184;2023-12-28T04:42:23;99911.66;;;2.26;82.83
59877;BME280;74472;51.140;17.184;2023-12-28T04:44:48;99894.38;;;2.25;83.00
59877;BME280;74472;51.140;17.184;2023-12-28T04:47:13;99897.81;;;2.25;82.95
59877;BME280;74472;51.140;17.184;2023-12-28T04:49:39;99892.38;;;2.30;83.22
59877;BME280;74472;51.140;17.184;2023-12-28T04:52:04;99896.47;;;2.35;84.05
59877;BME280;74472;51.140;17.184;2023-12-28T04:54:29;99906.63;;;2.42;83.60
59877;BME280;74472;51.140;17.184;2023-12-28T04:56:55;99908.81;;;2.51;83.34
59877;BME280;74472;51.140;17.184;2023-12-28T04:59:20;99909.41;;;2.56;83.73
59877;BME280;74472;51.140;17.184;2023-12-28T05:01:45;99906.53;;;2.62;84.03
59877;BME280;74472;51.140;17.184;2023-12-28T05:04:11;99920.13;;;2.69;84.38
59877;BME280;74472;51.140;17.184;2023-12-28T05:06:37;99930.25;;;2.75;83.82
59877;BME280;74472;51.140;17.184;2023-12-28T05:09:03;99925.91;;;2.75;83.53
59877;BME280;74472;51.140;17.184;2023-12-28T05:11:28;99913.50;;;2.80;83.67
59877;BME280;74472;51.140;17.184;2023-12-28T05:13:56;99920.25;;;2.85;83.75
59877;BME280;74472;51.140;17.184;2023-12-28T05:16:22;99921.09;;;2.85;84.32
59877;BME280;74472;51.140;17.184;2023-12-28T05:18:47;99923.19;;;2.96;84.04
59877;BME280;74472;51.140;17.184;2023-12-28T05:21:12;99925.78;;;2.96;84.66
59877;BME280;74472;51.140;17.184;2023-12-28T05:23:38;99925.50;;;3.02;84.74
59877;BME280;74472;51.140;17.184;2023-12-28T05:26:04;99925.50;;;3.02;84.38
59877;BME280;74472;51.140;17.184;2023-12-28T05:28:29;99921.69;;;3.09;84.67
59877;BME280;74472;51.140;17.184;2023-12-28T05:30:55;99916.13;;;3.17;84.58
59877;BME280;74472;51.140;17.184;2023-12-28T05:33:20;99923.84;;;3.18;84.83
59877;BME280;74472;51.140;17.184;2023-12-28T05:35:45;99929.69;;;3.23;84.74
59877;BME280;74472;51.140;17.184;2023-12-28T05:38:11;99927.69;;;3.28;84.36
59877;BME280;74472;51.140;17.184;2023-12-28T05:40:36;99925.41;;;3.40;84.46
59877;BME280;74472;51.140;17.184;2023-12-28T05:43:02;99932.25;;;3.42;83.97
59877;BME280;74472;51.140;17.184;2023-12-28T05:45:27;99934.00;;;3.42;83.79
59877;BME280;74472;51.140;17.184;2023-12-28T05:47:52;99936.47;;;3.45;83.88
59877;BME280;74472;51.140;17.184;2023-12-28T05:50:18;99944.22;;;3.46;83.69
59877;BME280;74472;51.140;17.184;2023-12-28T05:52:43;99945.13;;;3.45;83.42
59877;BME280;74472;51.140;17.184;2023-12-28T05:55:08;99946.06;;;3.44;83.37
59877;BME280;74472;51.140;17.184;2023-12-28T05:57:34;99943.59;;;3.41;83.43
59877;BME280;74472;51.140;17.184;2023-12-28T05:59:59;99945.34;;;3.41;83.31
59877;BME280;74472;51.140;17.184;2023-12-28T06:02:24;99944.53;;;3.40;83.22
59877;BME280;74472;51.140;17.184;2023-12-28T06:04:50;99932.47;;;3.38;83.93
59877;BME280;74472;51.140;17.184;2023-12-28T06:07:15;99948.97;;;3.38;84.15
59877;BME280;74472;51.140;17.184;2023-12-28T06:09:40;99942.06;;;3.37;83.75
59877;BME280;74472;51.140;17.184;2023-12-28T06:12:06;99945.34;;;3.41;84.09
59877;BME280;74472;51.140;17.184;2023-12-28T06:14:31;99946.88;;;3.45;84.04
59877;BME280;74472;51.140;17.184;2023-12-28T06:16:56;99953.50;;;3.52;84.00
59877;BME280;74472;51.140;17.184;2023-12-28T06:19:22;99942.06;;;3.55;83.61
59877;BME280;74472;51.140;17.184;2023-12-28T06:21:50;99943.69;;;3.57;83.45
59877;BME280;74472;51.140;17.184;2023-12-28T06:24:16;99948.91;;;3.57;82.82
59877;BME280;74472;51.140;17.184;2023-12-28T06:26:42;99948.13;;;3.55;83.06
59877;BME280;74472;51.140;17.184;2023-12-28T06:29:09;99955.88;;;3.57;82.73
59877;BME280;74472;51.140;17.184;2023-12-28T06:31:37;99958.88;;;3.49;82.79
59877;BME280;74472;51.140;17.184;2023-12-28T06:34:03;99964.41;;;3.43;82.78
59877;BME280;74472;51.140;17.184;2023-12-28T06:36:29;99961.16;;;3.38;83.02
59877;BME280;74472;51.140;17.184;2023-12-28T06:38:54;99954.81;;;3.43;83.30
59877;BME280;74472;51.140;17.184;2023-12-28T06:41:19;99963.38;;;3.45;83.40
59877;BME280;74472;51.140;17.184;2023-12-28T06:43:45;99957.97;;;3.50;83.53
59877;BME280;74472;51.140;17.184;2023-12-28T06:46:10;99973.59;;;3.50;83.57
59877;BME280;74472;51.140;17.184;2023-12-28T06:48:35;99957.31;;;3.45;83.69
59877;BME280;74472;51.140;17.184;2023-12-28T06:51:01;99958.88;;;3.49;83.49
59877;BME280;74472;51.140;17.184;2023-12-28T06:53:27;99957.19;;;3.48;83.67
59877;BME280;74472;51.140;17.184;2023-12-28T06:55:59;99953.81;;;3.46;83.98
59877;BME280;74472;51.140;17.184;2023-12-28T06:58:24;99965.00;;;3.48;83.82
59877;BME280;74472;51.140;17.184;2023-12-28T07:00:49;99961.31;;;3.52;83.97
59877;BME280;74472;51.140;17.184;2023-12-28T07:03:15;99950.72;;;3.55;83.95
59877;BME280;74472;51.140;17.184;2023-12-28T07:05:40;99948.13;;;3.55;83.96
59877;BME280;74472;51.140;17.184;2023-12-28T07:08:05;99946.97;;;3.61;84.18
59877;BME280;74472;51.140;17.184;2023-12-28T07:10:31;99950.22;;;3.66;84.07
59877;BME280;74472;51.140;17.184;2023-12-28T07:12:56;99948.16;;;3.72;84.44
59877;BME280;74472;51.140;17.184;2023-12-28T07:15:21;99949.66;;;3.76;84.24
59877;BME280;74472;51.140;17.184;2023-12-28T07:17:47;99949.38;;;3.83;84.29
59877;BME280;74472;51.140;17.184;2023-12-28T07:20:12;99957.72;;;3.89;84.27
59877;BME280;74472;51.140;17.184;2023-12-28T07:22:38;99968.63;;;3.97;84.18
59877;BME280;74472;51.140;17.184;2023-12-28T07:25:06;99968.41;;;4.02;84.02
59877;BME280;74472;51.140;17.184;2023-12-28T07:27:35;99955.03;;;4.08;84.11
59877;BME280;74472;51.140;17.184;2023-12-28T07:30:02;99969.50;;;4.14;83.83
59877;BME280;74472;51.140;17.184;2023-12-28T07:32:28;99973.59;;;4.19;83.91
59877;BME280;74472;51.140;17.184;2023-12-28T07:34:53;99969.88;;;4.23;83.80
59877;BME280;74472;51.140;17.184;2023-12-28T07:37:19;99966.03;;;4.31;83.72
59877;BME280;74472;51.140;17.184;2023-12-28T07:39:44;99974.38;;;4.37;83.83
59877;BME280;74472;51.140;17.184;2023-12-28T07:42:10;99976.63;;;4.45;83.75
59877;BME280;74472;51.140;17.184;2023-12-28T07:44:35;99978.91;;;4.51;83.49
59877;BME280;74472;51.140;17.184;2023-12-28T07:47:00;99989.78;;;4.59;83.41
59877;BME280;74472;51.140;17.184;2023-12-28T07:49:26;99987.78;;;4.64;83.32
59877;BME280;74472;51.140;17.184;2023-12-28T07:51:51;99985.84;;;4.68;83.11
59877;BME280;74472;51.140;17.184;2023-12-28T07:54:16;99987.09;;;4.77;83.07
59877;BME280;74472;51.140;17.184;2023-12-28T07:56:42;99987.72;;;4.82;83.00
59877;BME280;74472;51.140;17.184;2023-12-28T07:59:07;99983.06;;;4.87;82.69
59877;BME280;74472;51.140;17.184;2023-12-28T08:01:34;99987.94;;;4.93;82.64
59877;BME280;74472;51.140;17.184;2023-12-28T08:04:00;99987.63;;;4.99;82.43
59877;BME280;74472;51.140;17.184;2023-12-28T08:06:26;99975.31;;;5.01;82.36
59877;BME280;74472;51.140;17.184;2023-12-28T08:08:51;99989.63;;;5.10;82.46
59877;BME280;74472;51.140;17.184;2023-12-28T08:11:19;99982.28;;;5.16;82.15
59877;BME280;74472;51.140;17.184;2023-12-28T08:13:44;99988.91;;;5.24;82.00
59877;BME280;74472;51.140;17.184;2023-12-28T08:16:09;99992.84;;;5.31;81.90
59877;BME280;74472;51.140;17.184;2023-12-28T08:18:35;99990.72;;;5.37;81.78
59877;BME280;74472;51.140;17.184;2023-12-28T08:21:00;100001.75;;;5.43;81.42
59877;BME280;74472;51.140;17.184;2023-12-28T08:23:25;100009.22;;;5.50;81.83
59877;BME280;74472;51.140;17.184;2023-12-28T08:25:50;100005.31;;;5.57;81.44
59877;BME280;74472;51.140;17.184;2023-12-28T08:28:16;100003.19;;;5.64;81.79
59877;BME280;74472;51.140;17.184;2023-12-28T08:30:42;100001.88;;;5.71;81.50
59877;BME280;74472;51.140;17.184;2023-12-28T08:33:07;99999.00;;;5.76;81.07
59877;BME280;74472;51.140;17.184;2023-12-28T08:35:32;100013.44;;;5.83;81.32
59877;BME280;74472;51.140;17.184;2023-12-28T08:37:57;100016.44;;;5.91;81.48
59877;BME280;74472;51.140;17.184;2023-12-28T08:40:23;100009.88;;;6.00;81.50
59877;BME280;74472;51.140;17.184;2023-12-28T08:42:48;100016.16;;;6.11;81.09
59877;BME280;74472;51.140;17.184;2023-12-28T08:45:13;100008.59;;;6.21;80.99
59877;BME280;74472;51.140;17.184;2023-12-28T08:47:39;100010.84;;;6.27;80.76
59877;BME280;74472;51.140;17.184;2023-12-28T08:50:04;100013.75;;;6.37;81.33
59877;BME280;74472;51.140;17.184;2023-12-28T08:52:30;100020.25;;;6.46;80.89
59877;BME280;74472;51.140;17.184;2023-12-28T08:54:56;100023.16;;;6.55;80.69
59877;BME280;74472;51.140;17.184;2023-12-28T08:57:21;100023.50;;;6.64;80.35
59877;BME280;74472;51.140;17.184;2023-12-28T08:59:46;100018.00;;;6.68;80.28
59877;BME280;74472;51.140;17.184;2023-12-28T09:02:12;100022.47;;;6.80;79.84
59877;BME280;74472;51.140;17.184;2023-12-28T09:04:37;100032.41;;;6.90;79.49
59877;BME280;74472;51.140;17.184;2023-12-28T09:07:04;100035.41;;;6.98;79.58
59877;BME280;74472;51.140;17.184;2023-12-28T09:09:30;100024.41;;;7.05;79.55
59877;BME280;74472;51.140;17.184;2023-12-28T09:11:55;100036.22;;;7.13;79.11
59877;BME280;74472;51.140;17.184;2023-12-28T09:14:21;100050.53;;;7.21;79.05
59877;BME280;74472;51.140;17.184;2023-12-28T09:16:47;100057.94;;;7.29;78.80
59877;BME280;74472;51.140;17.184;2023-12-28T09:19:12;100057.34;;;7.38;78.62
59877;BME280;74472;51.140;17.184;2023-12-28T09:21:38;100054.22;;;7.46;78.82
59877;BME280;74472;51.140;17.184;2023-12-28T09:24:03;100050.25;;;7.53;78.54
59877;BME280;74472;51.140;17.184;2023-12-28T09:26:29;100056.06;;;7.58;78.68
59877;BME280;74472;51.140;17.184;2023-12-28T09:28:54;100046.00;;;7.65;78.42
59877;BME280;74472;51.140;17.184;2023-12-28T09:31:20;100034.16;;;7.72;78.30
59877;BME280;74472;51.140;17.184;2023-12-28T09:33:45;100046.16;;;7.76;78.39
59877;BME280;74472;51.140;17.184;2023-12-28T09:36:11;100031.91;;;7.80;78.00
59877;BME280;74472;51.140;17.184;2023-12-28T09:38:38;100026.44;;;7.83;77.86
59877;BME280;74472;51.140;17.184;2023-12-28T09:41:12;100022.66;;;7.87;77.76
59877;BME280;74472;51.140;17.184;2023-12-28T09:46:13;100020.34;;;7.95;77.37
59877;BME280;74472;51.140;17.184;2023-12-28T09:48:39;100017.22;;;8.03;76.86
59877;BME280;74472;51.140;17.184;2023-12-28T09:51:04;100015.13;;;8.08;76.81
59877;BME280;74472;51.140;17.184;2023-12-28T09:53:30;100016.59;;;8.12;76.63
59877;BME280;74472;51.140;17.184;2023-12-28T09:55:56;100025.84;;;8.18;76.64
59877;BME280;74472;51.140;17.184;2023-12-28T09:58:22;100038.69;;;8.22;76.81
59877;BME280;74472;51.140;17.184;2023-12-28T10:00:49;100026.19;;;8.26;76.67
59877;BME280;74472;51.140;17.184;2023-12-28T10:03:16;100013.06;;;8.26;76.28
59877;BME280;74472;51.140;17.184;2023-12-28T10:05:41;100022.91;;;8.35;76.29
59877;BME280;74472;51.140;17.184;2023-12-28T10:08:07;100012.97;;;8.40;76.04
59877;BME280;74472;51.140;17.184;2023-12-28T10:10:33;100000.34;;;8.45;75.98
59877;BME280;74472;51.140;17.184;2023-12-28T10:12:58;99989.41;;;8.52;75.61
59877;BME280;74472;51.140;17.184;2023-12-28T10:15:24;99986.56;;;8.55;75.83
59877;BME280;74472;51.140;17.184;2023-12-28T10:17:51;99995.06;;;8.58;75.38
59877;BME280;74472;51.140;17.184;2023-12-28T10:20:17;100007.81;;;8.64;75.46
59877;BME280;74472;51.140;17.184;2023-12-28T10:22:43;100010.34;;;8.66;75.46
59877;BME280;74472;51.140;17.184;2023-12-28T10:25:09;100008.44;;;8.68;75.52
59877;BME280;74472;51.140;17.184;2023-12-28T10:27:41;100004.53;;;8.74;75.29
59877;BME280;74472;51.140;17.184;2023-12-28T10:30:07;100011.16;;;8.79;75.14
59877;BME280;74472;51.140;17.184;2023-12-28T10:32:32;100001.25;;;8.83;75.13
59877;BME280;74472;51.140;17.184;2023-12-28T10:34:58;100015.88;;;8.87;75.31
59877;BME280;74472;51.140;17.184;2023-12-28T10:37:26;100036.84;;;8.88;75.22
59877;BME280;74472;51.140;17.184;2023-12-28T10:39:53;100036.59;;;8.91;75.28
59877;BME280;74472;51.140;17.184;2023-12-28T10:42:31;100037.88;;;8.99;75.09
59877;BME280;74472;51.140;17.184;2023-12-28T10:45:03;100036.78;;;9.01;74.93
59877;BME280;74472;51.140;17.184;2023-12-28T10:47:31;100032.59;;;8.99;75.15
59877;BME280;74472;51.140;17.184;2023-12-28T10:50:00;100041.00;;;9.04;75.07
59877;BME280;74472;51.140;17.184;2023-12-28T10:52:28;100040.16;;;9.03;74.67
59877;BME280;74472;51.140;17.184;2023-12-28T10:55:27;100039.13;;;9.06;74.95
59877;BME280;74472;51.140;17.184;2023-12-28T10:58:15;100025.97;;;9.06;74.96
59877;BME280;74472;51.140;17.184;2023-12-28T11:00:51;100031.22;;;9.06;74.88
59877;BME280;74472;51.140;17.184;2023-12-28T11:03:23;100025.97;;;9.06;75.04
59877;BME280;74472;51.140;17.184;2023-12-28T11:05:51;100016.88;;;9.10;75.07
59877;BME280;74472;51.140;17.184;2023-12-28T11:08:17;100016.44;;;9.16;75.15
59877;BME280;74472;51.140;17.184;2023-12-28T11:10:45;100017.28;;;9.16;75.16
59877;BME280;74472;51.140;17.184;2023-12-28T11:13:11;100012.97;;;9.15;75.09
59877;BME280;74472;51.140;17.184;2023-12-28T11:15:38;100005.56;;;9.21;75.17
59877;BME280;74472;51.140;17.184;2023-12-28T11:18:03;99996.63;;;9.23;75.00
59877;BME280;74472;51.140;17.184;2023-12-28T11:20:32;100009.69;;;9.25;75.12
59877;BME280;74472;51.140;17.184;2023-12-28T11:22:59;100010.31;;;9.28;74.99
59877;BME280;74472;51.140;17.184;2023-12-28T11:25:31;100017.25;;;9.29;75.40
59877;BME280;74472;51.140;17.184;2023-12-28T11:27:56;100016.19;;;9.32;75.30
59877;BME280;74472;51.140;17.184;2023-12-28T11:30:25;100005.75;;;9.30;75.01
59877;BME280;74472;51.140;17.184;2023-12-28T11:32:56;100010.38;;;9.39;75.15
59877;BME280;74472;51.140;17.184;2023-12-28T11:35:22;99999.00;;;9.39;74.98
59877;BME280;74472;51.140;17.184;2023-12-28T11:37:51;100006.53;;;9.44;75.18
59877;BME280;74472;51.140;17.184;2023-12-28T11:40:18;100000.34;;;9.45;75.33
59877;BME280;74472;51.140;17.184;2023-12-28T11:42:52;99980.44;;;9.40;74.99
59877;BME280;74472;51.140;17.184;2023-12-28T11:45:22;99993.91;;;9.49;75.05
59877;BME280;74472;51.140;17.184;2023-12-28T11:47:58;100001.66;;;9.50;75.37
59877;BME280;74472;51.140;17.184;2023-12-28T11:50:24;99997.16;;;9.52;75.43
59877;BME280;74472;51.140;17.184;2023-12-28T11:52:49;99991.97;;;9.51;75.03
59877;BME280;74472;51.140;17.184;2023-12-28T11:55:24;99991.75;;;9.54;75.01
59877;BME280;74472;51.140;17.184;2023-12-28T11:57:49;99974.50;;;9.50;75.17
59877;BME280;74472;51.140;17.184;2023-12-28T12:00:15;99977.88;;;9.52;74.72
59877;BME280;74472;51.140;17.184;2023-12-28T12:02:43;99959.66;;;9.49;75.26
59877;BME280;74472;51.140;17.184;2023-12-28T12:05:10;99965.19;;;9.57;75.19
59877;BME280;74472;51.140;17.184;2023-12-28T12:07:37;99962.94;;;9.63;75.06
59877;BME280;74472;51.140;17.184;2023-12-28T12:10:02;99974.44;;;9.62;74.76
59877;BME280;74472;51.140;17.184;2023-12-28T12:12:31;99972.63;;;9.63;74.91
59877;BME280;74472;51.140;17.184;2023-12-28T12:14:56;99968.19;;;9.63;74.94
59877;BME280;74472;51.140;17.184;2023-12-28T12:17:24;99970.75;;;9.65;74.86
59877;BME280;74472;51.140;17.184;2023-12-28T12:19:50;99960.69;;;9.70;74.96
59877;BME280;74472;51.140;17.184;2023-12-28T12:22:18;99967.88;;;9.68;74.85
59877;BME280;74472;51.140;17.184;2023-12-28T12:24:46;99965.72;;;9.73;74.93
59877;BME280;74472;51.140;17.184;2023-12-28T12:27:13;99967.75;;;9.70;74.79
59877;BME280;74472;51.140;17.184;2023-12-28T12:29:41;99956.38;;;9.69;74.86
59877;BME280;74472;51.140;17.184;2023-12-28T12:32:06;99979.88;;;9.72;75.25
59877;BME280;74472;51.140;17.184;2023-12-28T12:34:32;99971.97;;;9.72;74.75
59877;BME280;74472;51.140;17.184;2023-12-28T12:36:58;99965.41;;;9.78;75.12
59877;BME280;74472;51.140;17.184;2023-12-28T12:39:24;99966.22;;;9.78;75.06
59877;BME280;74472;51.140;17.184;2023-12-28T12:41:49;99962.53;;;9.81;75.07
59877;BME280;74472;51.140;17.184;2023-12-28T12:44:19;99970.22;;;9.84;74.92
59877;BME280;74472;51.140;17.184;2023-12-28T12:46:45;99965.78;;;9.84;75.07
59877;BME280;74472;51.140;17.184;2023-12-28T12:49:11;99973.91;;;9.81;74.94
59877;BME280;74472;51.140;17.184;2023-12-28T12:51:38;99960.22;;;9.76;74.66
59877;BME280;74472;51.140;17.184;2023-12-28T12:54:03;99957.50;;;9.78;75.02
59877;BME280;74472;51.140;17.184;2023-12-28T12:56:29;99967.81;;;9.81;74.95